Time;durP1;ratioP1;P1;durP2;ratioP2;P2;SDS_P1;SDS_P2;PMS_P1;PMS_P2;Temp;Humidity;BMP_temperature;BMP_pressure;BME280_temperature;BME280_humidity;BME280_pressure;Samples;Min_cycle;Max_cycle;Signal;HPM_P1;HPM_P2
2023/05/19 00:01:16;;;;;;;4.73;1.63;;;;;;;9.89;100.00;100966.83;1453763;89;21361;-87
2023/05/19 00:03:56;;;;;;;2.27;1.93;;;;;;;9.88;100.00;100962.52;1453596;89;21361;-87
2023/05/19 00:06:32;;;;;;;2.60;1.70;;;;;;;9.87;100.00;100954.23;1458835;89;21397;-86
2023/05/19 00:09:00;;;;;;;5.77;1.90;;;;;;;9.86;100.00;100955.19;1455224;89;21509;-90
2023/05/19 00:11:28;;;;;;;2.42;1.90;;;;;;;9.81;100.00;100961.83;1457049;89;22451;-89
2023/05/19 00:13:57;;;;;;;2.40;1.83;;;;;;;9.81;100.00;100955.22;1454424;89;21450;-89
2023/05/19 00:16:26;;;;;;;3.27;1.80;;;;;;;9.80;100.00;100955.71;1455675;89;21598;-90
2023/05/19 00:18:52;;;;;;;2.17;1.80;;;;;;;9.78;100.00;100957.67;1455255;89;21724;-87
2023/05/19 00:21:19;;;;;;;2.03;1.83;;;;;;;9.82;100.00;100953.78;1451603;89;21375;-86
2023/05/19 00:23:46;;;;;;;2.30;1.37;;;;;;;9.84;100.00;100958.92;1453002;89;22330;-87
2023/05/19 00:26:12;;;;;;;7.60;2.23;;;;;;;9.82;100.00;100957.75;1456405;89;21501;-85
2023/05/19 00:28:38;;;;;;;2.80;1.63;;;;;;;9.84;100.00;100951.86;1457211;89;21374;-87
2023/05/19 00:31:05;;;;;;;2.47;1.60;;;;;;;9.79;100.00;100953.21;1453829;89;22314;-86
2023/05/19 00:33:32;;;;;;;3.53;1.87;;;;;;;9.82;100.00;100948.50;1454306;89;21413;-85
2023/05/19 00:36:02;;;;;;;4.60;2.03;;;;;;;9.80;100.00;100953.06;1458410;89;21523;-86
2023/05/19 00:38:31;;;;;;;3.00;2.43;;;;;;;9.83;100.00;100954.61;1455961;89;21493;-85
2023/05/19 00:40:58;;;;;;;4.63;1.90;;;;;;;9.81;100.00;100957.41;1455065;89;21630;-85
2023/05/19 00:43:25;;;;;;;23.23;4.40;;;;;;;9.84;100.00;100961.11;1456366;89;21501;-84
2023/05/19 00:45:51;;;;;;;2.23;1.67;;;;;;;9.85;100.00;100953.52;1455560;89;21584;-86
2023/05/19 00:48:18;;;;;;;1.83;1.67;;;;;;;9.89;100.00;100954.92;1453947;89;21552;-86
2023/05/19 00:50:45;;;;;;;3.43;1.80;;;;;;;9.87;100.00;100963.49;1451073;89;21382;-87
2023/05/19 00:53:13;;;;;;;4.30;1.87;;;;;;;9.89;100.00;100958.89;1452702;89;22463;-87
2023/05/19 00:55:40;;;;;;;3.80;2.00;;;;;;;9.89;100.00;100954.92;1458644;89;21621;-88
2023/05/19 00:58:10;;;;;;;5.00;1.90;;;;;;;9.89;100.00;100961.53;1454107;89;21468;-89
2023/05/19 01:00:38;;;;;;;2.73;2.03;;;;;;;9.89;100.00;100966.83;1453775;89;21501;-88
2023/05/19 01:03:12;;;;;;;2.37;1.40;;;;;;;9.89;100.00;100958.89;1457077;89;21413;-90
2023/05/19 01:05:46;;;;;;;2.40;2.03;;;;;;;9.89;100.00;100956.73;1457124;89;21383;-90
2023/05/19 01:08:12;;;;;;;2.90;2.03;;;;;;;9.87;100.00;100948.13;1455480;89;21493;-91
2023/05/19 01:10:39;;;;;;;2.60;1.87;;;;;;;9.88;100.00;100943.17;1450101;89;21493;-90
2023/05/19 01:13:06;;;;;;;3.07;2.73;;;;;;;9.86;100.00;100939.81;1435270;89;21376;-89
2023/05/19 01:16:15;;;;;;;2.87;1.80;;;;;;;9.84;100.00;100937.77;1438973;89;21888;-89
2023/05/19 01:19:12;;;;;;;4.90;2.20;;;;;;;9.83;100.00;100942.72;1456973;89;22425;-87
2023/05/19 01:22:05;;;;;;;2.53;1.70;;;;;;;9.86;100.00;100948.58;1456682;89;22498;-86
2023/05/19 01:25:05;;;;;;;3.37;2.33;;;;;;;9.82;100.00;100949.81;1450690;89;21361;-87
2023/05/19 01:28:11;;;;;;;2.00;1.80;;;;;;;9.81;100.00;100946.83;1456916;89;21412;-85
2023/05/19 01:30:40;;;;;;;7.30;3.70;;;;;;;9.76;100.00;100948.19;1428513;89;21675;-84
2023/05/19 01:33:13;;;;;;;2.13;1.90;;;;;;;9.76;100.00;100956.95;1457144;89;21514;-83
2023/05/19 01:35:41;;;;;;;2.37;1.77;;;;;;;9.72;100.00;100956.84;1453431;89;21436;-84
2023/05/19 01:38:10;;;;;;;3.33;1.53;;;;;;;9.74;100.00;100956.23;1458705;89;21566;-84
2023/05/19 01:40:39;;;;;;;3.27;1.90;;;;;;;9.71;100.00;100961.78;1453191;89;21376;-84
2023/05/19 01:43:08;;;;;;;4.40;2.07;;;;;;;9.72;100.00;100960.80;1452799;89;21441;-83
2023/05/19 01:45:35;;;;;;;2.33;2.10;;;;;;;9.73;100.00;100964.31;1456283;89;21464;-84
2023/05/19 01:48:04;;;;;;;2.80;1.67;;;;;;;9.70;100.00;100963.59;1456771;89;21508;-84
2023/05/19 01:50:32;;;;;;;2.67;2.33;;;;;;;9.69;100.00;100966.34;1457170;89;21517;-84
2023/05/19 01:52:59;;;;;;;2.50;1.93;;;;;;;9.62;100.00;100961.23;1438588;89;21435;-85
2023/05/19 01:55:26;;;;;;;3.40;2.20;;;;;;;9.66;100.00;100975.86;1450996;89;22278;-84
2023/05/19 01:58:34;;;;;;;2.37;1.87;;;;;;;9.66;100.00;100973.21;1457868;89;21605;-84
2023/05/19 02:01:27;;;;;;;4.70;2.00;;;;;;;9.62;100.00;100970.48;1456144;89;21523;-87
2023/05/19 02:04:38;;;;;;;2.40;2.20;;;;;;;9.61;100.00;100968.33;1453924;89;21405;-89
2023/05/19 02:07:32;;;;;;;4.47;2.13;;;;;;;9.61;100.00;100964.83;1453872;89;22106;-89
2023/05/19 02:10:19;;;;;;;4.13;2.03;;;;;;;9.57;100.00;100964.25;1448289;89;21375;-89
2023/05/19 02:12:47;;;;;;;4.97;2.57;;;;;;;9.53;100.00;100962.84;1453329;89;21649;-87
2023/05/19 02:15:23;;;;;;;3.00;2.27;;;;;;;9.49;100.00;100968.87;1455800;89;21449;-87
2023/05/19 02:17:53;;;;;;;2.07;1.80;;;;;;;9.47;100.00;100968.64;1452016;89;21360;-86
2023/05/19 02:20:20;;;;;;;2.37;2.07;;;;;;;9.42;100.00;100962.41;1399603;92;22700;-87
2023/05/19 02:22:48;;;;;;;4.93;2.13;;;;;;;9.43;100.00;100969.84;1439130;91;21427;-86
2023/05/19 02:25:15;;;;;;;2.63;2.30;;;;;;;9.46;100.00;100970.91;1432124;91;21355;-87
2023/05/19 02:27:41;;;;;;;4.80;2.00;;;;;;;9.47;100.00;100972.12;1440919;91;22277;-86
2023/05/19 02:30:09;;;;;;;2.87;1.83;;;;;;;9.48;100.00;100967.17;1431439;91;21391;-86
2023/05/19 02:32:35;;;;;;;4.17;1.60;;;;;;;9.51;100.00;100969.22;1442831;90;21476;-86
2023/05/19 02:35:02;;;;;;;1.97;1.50;;;;;;;9.52;100.00;100966.92;1436855;90;21390;-87
2023/05/19 02:37:29;;;;;;;1.93;1.73;;;;;;;9.53;100.00;100968.62;1456200;89;21531;-86
2023/05/19 02:39:56;;;;;;;2.93;1.97;;;;;;;9.49;100.00;100960.95;1421494;91;21437;-86
2023/05/19 02:42:22;;;;;;;2.90;1.80;;;;;;;9.51;100.00;100963.94;1457042;89;21412;-86
2023/05/19 02:44:48;;;;;;;1.90;1.70;;;;;;;9.43;100.00;100962.75;1462754;89;22196;-86
2023/05/19 02:47:15;;;;;;;3.63;1.93;;;;;;;9.42;100.00;100954.48;1458466;89;21412;-88
2023/05/19 02:49:41;;;;;;;3.63;1.97;;;;;;;9.43;100.00;100960.59;1458381;89;21482;-87
2023/05/19 02:52:08;;;;;;;2.93;1.70;;;;;;;9.43;100.00;100959.27;1440740;89;21456;-89
2023/05/19 02:54:34;;;;;;;1.60;1.33;;;;;;;9.43;100.00;100954.82;1448274;89;21405;-88
2023/05/19 02:57:02;;;;;;;2.33;1.63;;;;;;;9.46;100.00;100957.70;1459296;89;21512;-86
2023/05/19 02:59:28;;;;;;;3.97;3.00;;;;;;;9.47;100.00;100971.28;1434463;89;21442;-86
2023/05/19 03:01:57;;;;;;;10.70;2.63;;;;;;;9.51;100.00;100962.13;1449352;89;21612;-89
2023/05/19 03:04:23;;;;;;;4.67;1.70;;;;;;;9.51;100.00;100966.09;1443519;89;21516;-89
2023/05/19 03:06:50;;;;;;;3.17;1.63;;;;;;;9.51;100.00;100963.94;1453592;89;22506;-86
2023/05/19 03:09:16;;;;;;;2.83;2.07;;;;;;;9.44;100.00;100964.45;1430847;89;21390;-87
2023/05/19 03:11:42;;;;;;;3.90;1.80;;;;;;;9.48;100.00;100966.34;1454771;89;21309;-86
2023/05/19 03:14:08;;;;;;;3.07;2.10;;;;;;;9.51;100.00;100967.41;1459432;89;22462;-87
2023/05/19 03:16:35;;;;;;;2.73;1.87;;;;;;;9.56;100.00;100977.12;1454780;89;21391;-87
2023/05/19 03:19:01;;;;;;;2.67;1.80;;;;;;;9.61;100.00;100982.00;1456637;89;21571;-87
2023/05/19 03:21:27;;;;;;;3.53;1.77;;;;;;;9.66;100.00;100974.53;1453340;89;22246;-87
2023/05/19 03:23:54;;;;;;;3.10;2.00;;;;;;;9.70;100.00;100981.26;1436492;89;21840;-87
2023/05/19 03:26:21;;;;;;;3.50;2.10;;;;;;;9.70;100.00;100984.73;1459132;89;21287;-91
2023/05/19 03:28:48;;;;;;;2.80;2.03;;;;;;;9.72;100.00;100983.27;1454691;89;21361;-89
2023/05/19 03:31:15;;;;;;;2.77;2.13;;;;;;;9.74;100.00;100982.67;1456578;89;21580;-88
2023/05/19 03:33:41;;;;;;;2.47;1.43;;;;;;;9.76;100.00;100979.42;1454810;89;21538;-87
2023/05/19 03:36:07;;;;;;;1.90;1.60;;;;;;;9.74;100.00;100969.45;1455392;89;21435;-88
2023/05/19 03:38:34;;;;;;;3.77;1.77;;;;;;;9.71;100.00;100968.39;1450793;89;21420;-89
2023/05/19 03:41:00;;;;;;;2.70;1.83;;;;;;;9.71;100.00;100966.58;1457332;89;22361;-88
2023/05/19 03:43:26;;;;;;;2.23;1.70;;;;;;;9.71;100.00;100971.03;1453763;89;21515;-89
2023/05/19 03:45:52;;;;;;;2.50;1.70;;;;;;;9.72;100.00;100964.77;1458754;89;21317;-89
2023/05/19 03:48:19;;;;;;;2.93;1.87;;;;;;;9.76;100.00;100963.56;1459889;89;21575;-89
2023/05/19 03:50:45;;;;;;;1.90;1.70;;;;;;;9.77;100.00;100964.39;1451956;89;22315;-87
2023/05/19 03:53:10;;;;;;;2.50;1.70;;;;;;;9.82;100.00;100963.03;1433598;89;21538;-86
2023/05/19 03:55:37;;;;;;;2.57;2.17;;;;;;;9.84;100.00;100968.17;1454009;89;21420;-88
2023/05/19 03:58:03;;;;;;;2.27;2.07;;;;;;;9.91;100.00;100968.86;1456024;89;21390;-88
2023/05/19 04:00:30;;;;;;;3.37;1.80;;;;;;;9.96;100.00;100968.48;1460444;89;21583;-90
2023/05/19 04:02:56;;;;;;;2.33;1.83;;;;;;;9.99;100.00;100975.32;1452581;89;23080;-87
2023/05/19 04:06:12;;;;;;;2.80;2.10;;;;;;;10.03;100.00;100977.55;1455516;89;21508;-87
2023/05/19 04:08:39;;;;;;;2.30;1.80;;;;;;;10.07;100.00;100980.77;1453123;89;21479;-89
2023/05/19 04:11:05;;;;;;;2.17;1.97;;;;;;;10.09;100.00;100985.45;1450139;89;22381;-87
2023/05/19 04:13:33;;;;;;;2.57;2.10;;;;;;;10.09;100.00;100984.12;1436182;89;21330;-89
2023/05/19 04:15:59;;;;;;;2.60;1.77;;;;;;;10.17;100.00;100982.50;1449285;89;21316;-88
2023/05/19 04:18:26;;;;;;;2.00;1.40;;;;;;;10.25;100.00;100978.38;1455255;89;21523;-88
2023/05/19 04:20:52;;;;;;;2.13;1.67;;;;;;;10.30;100.00;100984.12;1457148;89;21493;-88
2023/05/19 04:23:18;;;;;;;4.57;1.70;;;;;;;10.37;100.00;100990.09;1455280;89;22380;-88
2023/05/19 04:25:47;;;;;;;3.00;1.90;;;;;;;10.46;100.00;101000.36;1450266;89;21375;-85
2023/05/19 04:28:12;;;;;;;2.57;2.07;;;;;;;10.50;100.00;100994.30;1455097;89;22522;-88
2023/05/19 04:30:38;;;;;;;1.80;1.70;;;;;;;10.55;100.00;101000.05;1450512;89;21405;-88
2023/05/19 04:33:06;;;;;;;3.10;2.03;;;;;;;10.60;100.00;101001.32;1460212;89;21338;-88
2023/05/19 04:35:32;;;;;;;3.67;1.93;;;;;;;10.72;100.00;101003.88;1455789;89;21494;-87
2023/05/19 04:38:00;;;;;;;3.30;1.67;;;;;;;10.80;100.00;101008.02;1455897;89;21376;-88
2023/05/19 04:40:29;;;;;;;2.80;1.90;;;;;;;10.88;100.00;101007.34;1458999;89;21544;-84
2023/05/19 04:42:57;;;;;;;2.00;1.70;;;;;;;10.97;100.00;100998.58;1461227;89;21486;-85
2023/05/19 04:45:26;;;;;;;6.03;2.10;;;;;;;11.09;100.00;100997.48;1451498;89;21390;-86
2023/05/19 04:47:56;;;;;;;4.50;2.90;;;;;;;11.14;99.60;100997.08;1454240;89;21516;-86
2023/05/19 04:50:22;;;;;;;1.87;1.60;;;;;;;11.23;100.00;100999.73;1456634;89;21464;-86
2023/05/19 04:52:48;;;;;;;1.97;1.60;;;;;;;11.27;99.42;100995.81;1459233;89;21361;-86
2023/05/19 04:55:14;;;;;;;1.77;1.50;;;;;;;11.27;98.02;100989.69;1456047;89;22566;-85
2023/05/19 04:57:41;;;;;;;2.73;2.40;;;;;;;11.34;98.44;100992.64;1452954;88;22451;-85
2023/05/19 05:00:12;;;;;;;2.03;1.83;;;;;;;11.46;99.46;100995.50;1461198;89;21317;-86
2023/05/19 05:02:36;;;;;;;5.03;2.20;;;;;;;11.46;97.52;100998.15;1450916;89;21803;-86
2023/05/19 05:09:03;;;;;;;2.37;1.85;;;;;;;11.65;99.76;100996.83;1459860;89;21619;-79
2023/05/19 05:11:30;;;;;;;4.07;2.57;;;;;;;11.85;98.68;100990.15;1452128;89;21435;-80
2023/05/19 05:13:57;;;;;;;5.57;2.20;;;;;;;12.00;98.38;100990.56;1470648;89;21420;-91
2023/05/19 05:16:25;;;;;;;4.07;2.10;;;;;;;12.08;96.76;101002.14;1453803;89;22359;-91
2023/05/19 05:18:51;;;;;;;3.63;2.00;;;;;;;12.15;95.67;101005.91;1455028;89;21346;-93
2023/05/19 05:21:28;;;;;;;4.73;2.27;;;;;;;12.19;96.01;101005.12;1446827;89;21516;-91
2023/05/19 05:23:55;;;;;;;2.80;1.87;;;;;;;12.09;94.90;101010.96;1433805;89;21464;-92
2023/05/19 05:26:22;;;;;;;3.43;2.03;;;;;;;12.08;95.87;101010.59;1456985;89;21597;-78
2023/05/19 05:28:49;;;;;;;2.50;2.10;;;;;;;12.03;94.93;101008.88;1454292;89;22329;-78
2023/05/19 05:31:16;;;;;;;2.77;1.90;;;;;;;12.00;95.62;101014.44;1460518;89;21537;-79
2023/05/19 05:33:42;;;;;;;2.60;2.00;;;;;;;12.04;96.03;101011.88;1456755;89;21538;-80
2023/05/19 05:36:08;;;;;;;5.60;2.37;;;;;;;12.11;95.98;101019.59;1456066;89;21308;-76
2023/05/19 05:38:35;;;;;;;3.17;2.67;;;;;;;12.20;96.64;101014.78;1466242;89;22489;-79
2023/05/19 05:41:02;;;;;;;3.67;2.93;;;;;;;12.15;94.15;101015.19;1452835;89;21471;-79
2023/05/19 05:43:29;;;;;;;4.33;2.33;;;;;;;12.29;94.66;101013.08;1458871;89;21604;-78
2023/05/19 05:45:58;;;;;;;3.07;1.80;;;;;;;12.41;95.28;101019.38;1466828;89;21345;-77
2023/05/19 05:48:25;;;;;;;2.33;1.80;;;;;;;12.57;95.96;101012.13;1458730;89;21406;-77
2023/05/19 05:50:53;;;;;;;3.13;1.80;;;;;;;12.75;95.70;101006.04;1461274;89;21383;-78
2023/05/19 05:53:22;;;;;;;3.33;2.20;;;;;;;12.85;94.58;101010.80;1451842;89;22382;-79
2023/05/19 05:55:49;;;;;;;6.17;2.10;;;;;;;12.96;93.42;101007.11;1453809;89;21375;-78
2023/05/19 05:58:16;;;;;;;2.20;2.00;;;;;;;12.99;92.31;101011.62;1457370;89;21332;-76
2023/05/19 06:00:43;;;;;;;3.80;2.40;;;;;;;13.02;92.23;101017.97;1453312;89;21515;-77
2023/05/19 06:03:09;;;;;;;2.43;1.97;;;;;;;13.14;91.97;101015.10;1460765;89;21676;-77
2023/05/19 06:05:37;;;;;;;3.17;2.87;;;;;;;13.21;91.23;101017.52;1437680;89;21442;-78
2023/05/19 06:08:03;;;;;;;2.67;2.10;;;;;;;13.33;91.92;101026.97;1457376;89;21390;-78
2023/05/19 06:10:30;;;;;;;4.30;2.20;;;;;;;13.47;91.41;101021.62;1447080;89;21471;-77
2023/05/19 06:12:58;;;;;;;2.10;1.90;;;;;;;13.45;89.58;101023.59;1452531;89;21464;-79
2023/05/19 06:15:24;;;;;;;2.90;2.60;;;;;;;13.50;89.38;101018.16;1445239;89;22594;-78
2023/05/19 06:17:51;;;;;;;2.73;2.27;;;;;;;13.62;90.28;101023.25;1452249;89;21441;-79
2023/05/19 06:20:17;;;;;;;3.03;2.37;;;;;;;13.78;90.35;101018.05;1452870;89;21522;-78
2023/05/19 06:22:43;;;;;;;4.97;2.40;;;;;;;13.91;89.78;101018.50;1454910;89;21593;-79
2023/05/19 06:25:10;;;;;;;5.43;2.60;;;;;;;14.04;89.58;101026.56;1458000;89;21442;-79
2023/05/19 06:27:36;;;;;;;3.77;1.87;;;;;;;14.09;87.72;101023.77;1457949;89;22603;-78
2023/05/19 06:30:03;;;;;;;3.80;2.40;;;;;;;14.14;88.54;101024.65;1452702;89;21444;-79
2023/05/19 06:32:29;;;;;;;5.47;2.50;;;;;;;14.19;88.63;101025.85;1457165;89;21359;-78
2023/05/19 06:34:55;;;;;;;3.57;2.40;;;;;;;14.36;88.62;101028.12;1454715;89;22286;-78
2023/05/19 06:37:22;;;;;;;3.43;2.37;;;;;;;14.46;88.28;101020.01;1431457;89;21339;-78
2023/05/19 06:39:53;;;;;;;3.90;2.73;;;;;;;14.61;88.65;101017.61;1453175;89;21516;-78
2023/05/19 06:42:24;;;;;;;3.80;2.80;;;;;;;14.73;87.58;101017.69;1454107;89;21518;-77
2023/05/19 06:44:51;;;;;;;3.53;2.80;;;;;;;14.86;87.58;101019.39;1458211;89;21296;-79
2023/05/19 06:47:18;;;;;;;5.27;2.13;;;;;;;14.85;85.14;101015.56;1452836;89;21597;-78
2023/05/19 06:49:45;;;;;;;3.03;2.17;;;;;;;14.94;86.56;101021.25;1457671;89;21376;-79
2023/05/19 06:52:11;;;;;;;7.00;2.40;;;;;;;15.10;85.79;101024.45;1456483;89;22487;-78
2023/05/19 06:54:37;;;;;;;3.57;2.63;;;;;;;15.24;86.43;101023.82;1453282;89;21331;-80
2023/05/19 06:57:04;;;;;;;4.13;2.57;;;;;;;15.33;84.63;101022.86;1457486;89;22003;-79
2023/05/19 06:59:30;;;;;;;2.70;2.50;;;;;;;15.39;84.44;101027.18;1450309;89;21476;-77
2023/05/19 07:01:56;;;;;;;4.97;2.70;;;;;;;15.33;83.95;101032.20;1451954;89;21375;-78
2023/05/19 07:04:23;;;;;;;6.03;2.20;;;;;;;15.42;84.37;101037.52;1451070;89;21413;-81
2023/05/19 07:06:49;;;;;;;5.93;2.47;;;;;;;15.54;84.87;101030.89;1458497;89;21323;-78
2023/05/19 07:09:16;;;;;;;5.83;2.50;;;;;;;15.72;85.42;101034.25;1450841;89;21559;-78
2023/05/19 07:11:42;;;;;;;5.73;3.10;;;;;;;15.96;84.77;101033.91;1458670;89;21382;-78
2023/05/19 07:14:08;;;;;;;4.20;2.57;;;;;;;16.13;83.70;101030.22;1460091;89;21361;-79
2023/05/19 07:16:34;;;;;;;3.10;2.60;;;;;;;16.29;83.61;101036.56;1450760;89;21500;-80
2023/05/19 07:19:01;;;;;;;6.57;2.90;;;;;;;16.40;80.88;101035.69;1460694;89;21507;-81
2023/05/19 07:21:27;;;;;;;6.90;2.73;;;;;;;16.45;81.81;101035.99;1452406;89;21501;-80
2023/05/19 07:23:53;;;;;;;3.10;2.80;;;;;;;16.61;82.86;101036.45;1452954;89;21375;-80
2023/05/19 07:26:19;;;;;;;3.47;3.00;;;;;;;16.73;80.34;101034.75;1449235;89;21526;-78
2023/05/19 07:28:45;;;;;;;3.83;3.17;;;;;;;16.76;81.18;101030.39;1460200;89;22344;-80
2023/05/19 07:31:12;;;;;;;3.73;2.67;;;;;;;16.73;80.88;101025.39;1461844;89;22366;-79
2023/05/19 07:33:38;;;;;;;8.33;2.37;;;;;;;16.62;79.34;101029.27;1453217;89;21509;-79
2023/05/19 07:36:05;;;;;;;4.07;2.87;;;;;;;16.73;80.78;101033.41;1459211;89;21435;-82
2023/05/19 07:38:33;;;;;;;5.67;2.87;;;;;;;16.67;80.18;101039.77;1450530;89;21323;-81
2023/05/19 07:41:00;;;;;;;2.80;2.60;;;;;;;16.61;80.77;101038.30;1453771;89;21390;-81
2023/05/19 07:43:27;;;;;;;2.93;2.70;;;;;;;16.58;80.58;101042.15;1457473;89;21543;-81
2023/05/19 07:45:55;;;;;;;6.57;3.00;;;;;;;16.57;80.90;101037.82;1453996;89;22277;-81
2023/05/19 07:48:24;;;;;;;4.77;2.73;;;;;;;16.54;80.94;101038.64;1457275;89;21627;-80
2023/05/19 07:50:52;;;;;;;3.93;3.00;;;;;;;16.62;82.11;101040.78;1452650;89;21451;-81
2023/05/19 07:53:19;;;;;;;4.25;2.77;;;;;;;16.87;82.54;101034.05;1458933;89;21383;-81
2023/05/19 07:55:46;;;;;;;4.20;2.77;;;;;;;17.06;81.11;101036.31;1458126;89;22477;-81
2023/05/19 07:58:12;;;;;;;4.22;2.77;;;;;;;17.25;81.84;101028.84;1451489;89;21471;-81
2023/05/19 08:00:39;;;;;;;3.50;2.62;;;;;;;17.41;80.38;101030.59;1451634;89;21517;-81
2023/05/19 08:03:06;;;;;;;6.05;2.98;;;;;;;17.58;79.46;101030.29;1460904;89;21427;-81
2023/05/19 08:05:35;;;;;;;8.68;2.98;;;;;;;17.75;76.93;101028.32;1449528;89;21383;-81
2023/05/19 08:08:01;;;;;;;6.80;3.12;;;;;;;17.86;78.77;101036.95;1455993;89;21449;-86
2023/05/19 08:10:28;;;;;;;4.17;2.87;;;;;;;18.00;78.39;101031.62;1450636;89;21527;-87
2023/05/19 08:12:54;;;;;;;8.10;2.65;;;;;;;18.18;78.72;101018.40;1452173;89;21601;-83
2023/05/19 08:15:20;;;;;;;7.78;2.30;;;;;;;18.10;74.41;101023.86;1450953;89;21383;-85
2023/05/19 08:17:46;;;;;;;2.70;2.10;;;;;;;18.09;75.95;101020.84;1449164;89;21353;-85
2023/05/19 08:20:13;;;;;;;6.03;3.02;;;;;;;18.11;75.54;101024.18;1449031;89;21419;-85
2023/05/19 08:22:39;;;;;;;7.90;2.45;;;;;;;18.03;76.10;101017.88;1450401;89;21486;-85
2023/05/19 08:25:06;;;;;;;6.08;3.42;;;;;;;17.99;75.79;101021.94;1455681;89;21333;-85
2023/05/19 08:27:32;;;;;;;6.55;2.87;;;;;;;18.06;76.84;101011.84;1453798;89;21427;-82
2023/05/19 08:29:59;;;;;;;3.75;3.02;;;;;;;18.14;76.50;101007.73;1456114;89;22225;-86
2023/05/19 08:32:25;;;;;;;4.75;3.27;;;;;;;18.25;77.30;101008.62;1455019;89;22314;-86
2023/05/19 08:34:51;;;;;;;4.50;3.45;;;;;;;18.39;75.20;101006.47;1454811;89;21398;-84
2023/05/19 08:37:17;;;;;;;6.10;3.00;;;;;;;18.55;77.58;101005.43;1437724;89;21412;-84
2023/05/19 08:39:43;;;;;;;6.95;3.08;;;;;;;18.72;75.55;101004.72;1456634;89;21553;-85
2023/05/19 08:42:11;;;;;;;3.65;2.95;;;;;;;18.88;76.22;101007.23;1450653;89;21383;-85
2023/05/19 08:44:38;;;;;;;4.85;3.25;;;;;;;18.82;75.16;100997.78;1440564;89;22414;-80
2023/05/19 08:47:06;;;;;;;5.90;3.25;;;;;;;18.74;74.77;100994.69;1436427;89;21383;-81
2023/05/19 08:49:38;;;;;;;8.78;3.05;;;;;;;18.92;74.70;100999.13;1452037;89;21993;-83
2023/05/19 08:52:34;;;;;;;6.33;4.75;;;;;;;18.84;73.79;100995.20;1455433;89;22263;-87
2023/05/19 08:55:10;;;;;;;13.28;4.03;;;;;;;18.93;75.08;101000.80;1458877;89;21479;-87
2023/05/19 08:57:38;;;;;;;7.97;4.45;;;;;;;19.04;74.57;101007.51;1454357;89;21441;-89
2023/05/19 09:00:10;;;;;;;4.00;3.52;;;;;;;19.19;74.52;101008.84;1430183;89;21360;-85
2023/05/19 09:02:36;;;;;;;5.45;4.00;;;;;;;19.25;74.49;100997.82;1530318;89;22189;-85
2023/05/19 09:05:05;;;;;;;8.25;3.87;;;;;;;19.12;72.87;100999.34;1414926;89;21516;-83
2023/05/19 09:07:34;;;;;;;4.70;3.15;;;;;;;19.24;74.28;101002.36;1453855;89;21397;-81
2023/05/19 09:10:01;;;;;;;5.60;3.35;;;;;;;19.24;74.92;101001.02;1450942;89;21560;-81
2023/05/19 09:12:27;;;;;;;5.12;3.17;;;;;;;19.33;74.29;100998.56;1451834;89;21412;-81
2023/05/19 09:14:54;;;;;;;6.05;3.83;;;;;;;19.28;74.68;101002.84;1449206;89;22457;-79
2023/05/19 09:17:21;;;;;;;7.85;3.65;;;;;;;19.13;73.14;100998.83;1454808;89;21442;-80
2023/05/19 09:19:48;;;;;;;12.50;4.35;;;;;;;19.03;72.93;101007.72;1453385;89;21442;-79
2023/05/19 09:22:17;;;;;;;7.15;3.60;;;;;;;19.23;75.31;101003.39;1449267;89;21592;-81
2023/05/19 09:24:44;;;;;;;3.37;2.62;;;;;;;19.47;73.97;101000.02;1451095;89;21368;-80
2023/05/19 09:27:17;;;;;;;7.65;3.00;;;;;;;19.55;73.05;101001.23;1453902;89;22455;-81
2023/05/19 09:29:43;;;;;;;3.85;2.80;;;;;;;19.69;72.54;100997.67;1456774;89;21434;-81
2023/05/19 09:32:10;;;;;;;6.37;2.95;;;;;;;19.95;71.44;100982.80;1454206;89;21578;-81
2023/05/19 09:34:41;;;;;;;5.95;3.20;;;;;;;19.95;71.44;100982.80;1449271;89;21331;-81
2023/05/19 09:37:07;;;;;;;4.60;3.40;;;;;;;20.28;74.11;100982.98;1452782;89;22219;-81
2023/05/19 09:39:33;;;;;;;5.55;3.20;;;;;;;20.41;72.23;100979.56;1453730;89;21354;-81
2023/05/19 09:42:03;;;;;;;5.62;3.60;;;;;;;20.44;70.93;100987.23;1461997;89;21505;-82
2023/05/19 09:44:30;;;;;;;8.90;3.33;;;;;;;20.48;70.37;100972.34;1454426;89;22196;-81
2023/05/19 09:46:57;;;;;;;6.05;3.20;;;;;;;20.67;73.03;100972.16;1461929;89;21324;-81
2023/05/19 09:49:31;;;;;;;5.12;3.80;;;;;;;20.67;69.54;100972.98;1453290;89;22469;-82
2023/05/19 09:51:57;;;;;;;5.47;3.33;;;;;;;20.70;69.83;100964.52;1453255;89;21456;-82
2023/05/19 09:54:26;;;;;;;5.40;4.33;;;;;;;20.63;68.69;100965.02;1451833;89;22360;-81
2023/05/19 09:57:00;;;;;;;5.30;3.45;;;;;;;20.90;71.01;100965.11;1434125;89;21405;-82
2023/05/19 09:59:27;;;;;;;5.95;3.55;;;;;;;21.19;70.65;100966.09;1454939;89;21368;-81
2023/05/19 10:01:56;;;;;;;6.60;3.58;;;;;;;21.08;69.22;100968.04;1448608;89;21559;-81
2023/05/19 10:04:24;;;;;;;6.97;3.30;;;;;;;21.12;67.94;100966.62;1448593;89;21310;-83
2023/05/19 10:06:53;;;;;;;7.90;3.85;;;;;;;21.10;67.70;100963.29;1450818;89;21382;-81
2023/05/19 10:09:25;;;;;;;5.20;3.62;;;;;;;21.20;69.05;100968.27;1466844;89;21456;-82
2023/05/19 10:11:56;;;;;;;9.25;3.85;;;;;;;21.21;68.08;100966.43;1452829;89;21361;-82
2023/05/19 10:14:27;;;;;;;5.30;3.30;;;;;;;21.42;67.95;100966.27;1456584;89;21435;-82
2023/05/19 10:16:57;;;;;;;4.53;2.85;;;;;;;21.45;68.86;100964.51;1458593;89;22566;-81
2023/05/19 10:19:25;;;;;;;4.55;3.00;;;;;;;21.68;69.72;100970.02;1454239;89;21412;-80
2023/05/19 10:21:52;;;;;;;5.33;3.20;;;;;;;21.70;69.11;100967.95;1453922;89;21591;-81
2023/05/19 10:24:20;;;;;;;10.08;3.47;;;;;;;21.85;68.87;100966.67;1454412;89;21555;-81
2023/05/19 10:27:04;;;;;;;5.12;3.08;;;;;;;21.92;67.52;100962.62;1451596;89;21316;-81
2023/05/19 10:29:38;;;;;;;5.22;2.92;;;;;;;21.91;67.85;100956.93;1451748;89;21545;-81
2023/05/19 10:32:09;;;;;;;7.47;3.05;;;;;;;22.24;70.73;100966.84;1451288;89;21763;-80
2023/05/19 10:35:07;;;;;;;4.40;3.20;;;;;;;22.46;69.51;100961.48;1456406;89;21419;-83
2023/05/19 10:38:07;;;;;;;5.28;2.80;;;;;;;22.42;65.72;100958.92;1461653;89;21427;-79
2023/05/19 10:40:44;;;;;;;7.10;2.73;;;;;;;22.71;68.58;100948.64;1453204;89;21434;-78
2023/05/19 10:43:18;;;;;;;4.37;2.62;;;;;;;22.63;67.09;100948.87;1428145;89;22453;-79
2023/05/19 10:45:51;;;;;;;6.37;3.02;;;;;;;22.58;65.53;100949.51;1457581;89;21441;-79
2023/05/19 10:48:21;;;;;;;10.68;3.72;;;;;;;22.66;66.89;100941.17;1448447;89;22278;-78
2023/05/19 10:50:48;;;;;;;7.17;3.08;;;;;;;22.81;66.97;100946.28;1448330;89;22406;-79
2023/05/19 10:53:24;;;;;;;4.20;3.15;;;;;;;22.83;64.49;100946.08;1454392;89;21411;-79
2023/05/19 10:55:54;;;;;;;6.72;3.37;;;;;;;22.75;64.22;100942.58;1459431;89;21449;-80
2023/05/19 10:58:47;;;;;;;6.08;2.95;;;;;;;22.86;64.20;100949.17;1458218;89;21530;-79
2023/05/19 11:01:19;;;;;;;3.55;3.22;;;;;;;22.86;65.71;100950.52;1456705;89;21478;-79
2023/05/19 11:03:50;;;;;;;4.50;2.62;;;;;;;22.90;66.50;100945.02;1461385;89;21471;-79
2023/05/19 11:06:29;;;;;;;7.45;2.98;;;;;;;22.86;62.23;100939.72;1450378;89;21482;-79
2023/05/19 11:09:04;;;;;;;5.15;3.10;;;;;;;22.96;65.92;100940.12;1447489;89;21472;-79
2023/05/19 11:11:46;;;;;;;5.53;3.52;;;;;;;23.18;64.35;100934.36;1457292;89;21648;-77
2023/05/19 11:14:23;;;;;;;8.80;3.17;;;;;;;23.16;62.02;100932.40;1428227;89;21434;-79
2023/05/19 11:16:53;;;;;;;7.58;3.58;;;;;;;22.98;63.50;100929.92;1453842;89;21581;-79
2023/05/19 11:19:32;;;;;;;4.08;3.27;;;;;;;23.02;63.63;100932.18;1451373;89;21637;-79
2023/05/19 11:22:09;;;;;;;8.30;3.35;;;;;;;22.89;63.43;100929.84;1452811;89;22248;-80
2023/05/19 11:24:48;;;;;;;9.60;3.27;;;;;;;23.00;64.45;100932.94;1448323;89;21530;-80
2023/05/19 11:27:33;;;;;;;5.20;3.47;;;;;;;23.09;63.27;100923.53;1445181;89;22351;-84
2023/05/19 11:30:04;;;;;;;6.78;3.20;;;;;;;23.09;64.22;100922.18;1457261;89;21471;-83
2023/05/19 11:32:33;;;;;;;10.58;3.00;;;;;;;23.27;64.01;100920.89;1460320;89;21442;-83
2023/05/19 11:35:00;;;;;;;3.83;2.90;;;;;;;23.49;64.49;100928.63;1453414;89;21398;-82
2023/05/19 11:37:28;;;;;;;6.85;3.83;;;;;;;23.56;63.09;100926.69;1453583;89;21559;-83
2023/05/19 11:39:56;;;;;;;4.05;2.95;;;;;;;23.47;61.19;100929.38;1453137;89;21412;-84